createdAt,value
2022-11-05T00:00:36.776Z,9.63
2022-11-05T00:03:28.283Z,9.60
2022-11-05T00:06:14.513Z,9.56
2022-11-05T00:09:00.482Z,9.52
2022-11-05T00:11:47.110Z,9.50
2022-11-05T00:14:33.462Z,9.49
2022-11-05T00:17:00.885Z,9.49
2022-11-05T00:19:28.195Z,9.52
2022-11-05T00:22:16.780Z,9.53
2022-11-05T00:25:09.721Z,9.55
2022-11-05T00:27:36.989Z,9.55
2022-11-05T00:30:05.269Z,9.54
2022-11-05T00:32:32.949Z,9.51
2022-11-05T00:35:00.301Z,9.46
2022-11-05T00:37:28.639Z,9.45
2022-11-05T00:39:56.038Z,9.47
2022-11-05T00:42:42.432Z,9.47
2022-11-05T00:45:10.284Z,9.48
2022-11-05T00:47:58.152Z,9.46
2022-11-05T00:50:25.474Z,9.46
2022-11-05T00:52:57.886Z,9.44
2022-11-05T00:55:28.523Z,9.42
2022-11-05T00:57:57.128Z,9.39
2022-11-05T01:00:26.469Z,9.37
2022-11-05T01:02:53.818Z,9.40
2022-11-05T01:05:21.176Z,9.42
2022-11-05T01:07:48.425Z,9.44
2022-11-05T01:10:15.884Z,9.46
2022-11-05T01:12:43.314Z,9.47
2022-11-05T01:15:10.657Z,9.45
2022-11-05T01:17:37.940Z,9.44
2022-11-05T01:20:05.521Z,9.41
2022-11-05T01:22:32.795Z,9.38
2022-11-05T01:25:00.135Z,9.35
2022-11-05T01:27:27.760Z,9.35
2022-11-05T01:29:55.045Z,9.37
2022-11-05T01:32:22.272Z,9.38
2022-11-05T01:34:49.526Z,9.38
2022-11-05T01:37:16.811Z,9.39
2022-11-05T01:39:43.961Z,9.39
2022-11-05T01:42:18.623Z,9.41
2022-11-05T01:45:08.891Z,9.40
2022-11-05T01:47:36.103Z,9.36
2022-11-05T01:50:16.250Z,9.35
2022-11-05T01:52:43.646Z,9.33
2022-11-05T01:55:13.941Z,9.35
2022-11-05T01:57:41.795Z,9.37
2022-11-05T02:00:10.603Z,9.37
2022-11-05T02:02:40.398Z,9.38
2022-11-05T02:05:12.352Z,9.39
2022-11-05T02:07:40.633Z,9.39
2022-11-05T02:10:14.435Z,9.39
2022-11-05T02:12:48.605Z,9.39
2022-11-05T02:15:40.647Z,9.38
2022-11-05T02:18:20.472Z,9.35
2022-11-05T02:21:18.793Z,9.33
2022-11-05T02:24:27.602Z,9.34
2022-11-05T02:26:57.654Z,9.34
2022-11-05T02:29:39.840Z,9.35
2022-11-05T02:32:18.891Z,9.34
2022-11-05T02:34:53.912Z,9.33
2022-11-05T02:37:41.034Z,9.31
2022-11-05T02:40:20.906Z,9.27
2022-11-05T02:43:15.138Z,9.23
2022-11-05T02:46:30.406Z,9.23
2022-11-05T02:49:12.598Z,9.25
2022-11-05T02:51:52.244Z,9.24
2022-11-05T02:55:04.352Z,9.23
2022-11-05T02:57:36.771Z,9.24
2022-11-05T03:00:29.117Z,9.23
2022-11-05T03:02:56.377Z,9.19
2022-11-05T03:05:34.915Z,9.16
2022-11-05T03:08:12.942Z,9.15
2022-11-05T03:10:50.693Z,9.15
2022-11-05T03:13:21.681Z,9.13
2022-11-05T03:16:05.758Z,9.15
2022-11-05T03:18:42.554Z,9.17
2022-11-05T03:21:21.488Z,9.17
2022-11-05T03:23:58.081Z,9.14
2022-11-05T03:26:39.076Z,9.13
2022-11-05T03:29:11.636Z,9.13
2022-11-05T03:31:41.918Z,9.12
2022-11-05T03:34:13.064Z,9.12
2022-11-05T03:36:49.138Z,9.12
2022-11-05T03:39:22.226Z,9.11
2022-11-05T03:41:53.173Z,9.13
2022-11-05T03:44:27.229Z,9.17
2022-11-05T03:47:02.484Z,9.18
2022-11-05T03:49:36.722Z,9.19
2022-11-05T03:52:09.752Z,9.19
2022-11-05T03:54:37.082Z,9.19
2022-11-05T03:57:20.482Z,9.16
2022-11-05T03:59:50.081Z,9.17
2022-11-05T04:02:20.692Z,9.20
2022-11-05T04:04:48.417Z,9.22
2022-11-05T04:07:34.164Z,9.22
2022-11-05T04:10:19.958Z,9.22
2022-11-05T04:13:05.741Z,9.22
2022-11-05T04:15:55.695Z,9.18
2022-11-05T04:18:22.931Z,9.18
2022-11-05T04:21:08.688Z,9.18
2022-11-05T04:23:54.663Z,9.19
2022-11-05T04:26:23.586Z,9.20
2022-11-05T04:29:10.581Z,9.16
2022-11-05T04:31:38.637Z,9.15
2022-11-05T04:34:06.212Z,9.12
2022-11-05T04:36:33.669Z,9.08
2022-11-05T04:39:00.825Z,9.11
2022-11-05T04:41:28.126Z,9.13
2022-11-05T04:43:55.309Z,9.15
2022-11-05T04:46:22.693Z,9.17
2022-11-05T04:48:50.011Z,9.21
2022-11-05T04:51:17.340Z,9.23
2022-11-05T04:53:44.642Z,9.22
2022-11-05T04:56:15.825Z,9.18
2022-11-05T04:58:43.242Z,9.15
2022-11-05T05:01:16.308Z,9.16
2022-11-05T05:03:44.144Z,9.15
2022-11-05T05:06:11.599Z,9.17
2022-11-05T05:08:38.788Z,9.16
2022-11-05T05:11:09.089Z,9.14
2022-11-05T05:13:36.282Z,9.14
2022-11-05T05:16:08.308Z,9.13
2022-11-05T05:18:35.978Z,9.14
2022-11-05T05:21:22.517Z,9.16
2022-11-05T05:23:49.962Z,9.17
2022-11-05T05:26:17.335Z,9.18
2022-11-05T05:28:44.688Z,9.21
2022-11-05T05:31:11.882Z,9.23
2022-11-05T05:33:39.127Z,9.24
2022-11-05T05:36:11.145Z,9.23
2022-11-05T05:38:39.061Z,9.20
2022-11-05T05:41:06.545Z,9.14
2022-11-05T05:43:34.310Z,9.12
2022-11-05T05:46:05.839Z,9.12
2022-11-05T05:48:33.694Z,9.16
2022-11-05T05:51:09.436Z,9.18
2022-11-05T05:53:37.245Z,9.18
2022-11-05T05:56:05.796Z,9.18
2022-11-05T05:58:35.963Z,9.18
2022-11-05T06:01:06.680Z,9.18
2022-11-05T06:03:34.815Z,9.19
2022-11-05T06:06:04.375Z,9.17
2022-11-05T06:08:32.369Z,9.19
2022-11-05T06:11:00.498Z,9.20
2022-11-05T06:13:28.518Z,9.22
2022-11-05T06:16:03.220Z,9.24
2022-11-05T06:18:31.808Z,9.23
2022-11-05T06:21:06.772Z,9.24
2022-11-05T06:23:35.144Z,9.24
2022-11-05T06:26:03.734Z,9.24
2022-11-05T06:28:31.189Z,9.25
2022-11-05T06:30:58.309Z,9.27
2022-11-05T06:33:26.367Z,9.26
2022-11-05T06:35:54.364Z,9.27
2022-11-05T06:38:21.455Z,9.28
2022-11-05T06:40:48.574Z,9.29
2022-11-05T06:43:15.871Z,9.28
2022-11-05T06:45:43.085Z,9.29
2022-11-05T06:48:10.229Z,9.30
2022-11-05T06:50:37.409Z,9.33
2022-11-05T06:53:05.503Z,9.35
2022-11-05T06:55:32.652Z,9.37
2022-11-05T06:57:59.987Z,9.40
2022-11-05T07:00:27.118Z,9.41
2022-11-05T07:02:56.030Z,9.42
2022-11-05T07:05:23.765Z,9.42
2022-11-05T07:07:51.034Z,9.43
2022-11-05T07:10:19.142Z,9.49
2022-11-05T07:12:46.288Z,9.51
2022-11-05T07:15:13.677Z,9.51
2022-11-05T07:17:41.090Z,9.52
2022-11-05T07:20:09.637Z,9.49
2022-11-05T07:22:37.183Z,9.49
2022-11-05T07:25:05.381Z,9.52
2022-11-05T07:27:37.577Z,9.53
2022-11-05T07:30:06.941Z,9.55
2022-11-05T07:32:38.502Z,9.57
2022-11-05T07:35:07.177Z,9.56
2022-11-05T07:37:42.359Z,9.58
2022-11-05T07:40:10.765Z,9.60
2022-11-05T07:42:38.018Z,9.60
2022-11-05T07:45:05.693Z,9.59
2022-11-05T07:47:32.831Z,9.56
2022-11-05T07:49:59.954Z,9.54
2022-11-05T07:52:27.302Z,9.54
2022-11-05T07:54:54.462Z,9.57
2022-11-05T07:57:21.599Z,9.60
2022-11-05T07:59:48.772Z,9.63
2022-11-05T08:02:15.980Z,9.65
2022-11-05T08:04:43.384Z,9.67
2022-11-05T08:07:10.430Z,9.66
2022-11-05T08:09:37.534Z,9.63
2022-11-05T08:12:05.048Z,9.60
2022-11-05T08:14:32.363Z,9.60
2022-11-05T08:16:59.475Z,9.61
2022-11-05T08:19:26.598Z,9.62
2022-11-05T08:21:53.740Z,9.63
2022-11-05T08:24:20.877Z,9.65
2022-11-05T08:26:48.027Z,9.67
2022-11-05T08:29:15.265Z,9.69
2022-11-05T08:31:42.414Z,9.71
2022-11-05T08:34:09.696Z,9.74
2022-11-05T08:36:36.838Z,9.76
2022-11-05T08:39:04.368Z,9.76
2022-11-05T08:41:31.497Z,9.77
2022-11-05T08:43:58.631Z,9.74
2022-11-05T08:46:25.836Z,9.74
2022-11-05T08:48:53.265Z,9.77
2022-11-05T08:51:20.377Z,9.79
2022-11-05T08:53:47.503Z,9.81
2022-11-05T08:56:14.671Z,9.81
2022-11-05T08:58:41.792Z,9.79
2022-11-05T09:01:08.953Z,9.77
2022-11-05T09:03:36.436Z,9.76
2022-11-05T09:06:03.721Z,9.78
2022-11-05T09:08:30.981Z,9.80
2022-11-05T09:10:58.113Z,9.82
2022-11-05T09:13:25.956Z,9.86
2022-11-05T09:15:53.781Z,9.89
2022-11-05T09:18:21.213Z,9.90
2022-11-05T09:20:48.414Z,9.91
2022-11-05T09:23:15.792Z,9.92
2022-11-05T09:25:44.282Z,9.93
2022-11-05T09:28:16.756Z,9.96
2022-11-05T09:30:49.922Z,9.99
2022-11-05T09:33:19.644Z,10.02
2022-11-05T09:35:46.846Z,10.04
2022-11-05T09:38:14.044Z,10.02
2022-11-05T09:40:53.493Z,10.00
2022-11-05T09:43:31.236Z,9.99
2022-11-05T09:46:03.417Z,10.00
2022-11-05T09:48:32.791Z,10.00
2022-11-05T09:51:00.006Z,9.98
2022-11-05T09:53:28.265Z,9.98
2022-11-05T09:55:57.972Z,9.99
2022-11-05T09:59:00.700Z,10.01
2022-11-05T10:01:35.461Z,10.05
2022-11-05T10:04:09.381Z,10.07
2022-11-05T10:06:42.994Z,10.08
2022-11-05T10:09:31.423Z,10.10
2022-11-05T10:12:07.121Z,10.09
2022-11-05T10:14:42.031Z,10.10
2022-11-05T10:17:22.470Z,10.12
2022-11-05T10:20:03.411Z,10.12
2022-11-05T10:22:30.493Z,10.15
2022-11-05T10:24:57.728Z,10.18
2022-11-05T10:27:27.853Z,10.20
2022-11-05T10:29:55.555Z,10.22
2022-11-05T10:32:31.537Z,10.23
2022-11-05T10:35:01.166Z,10.21
2022-11-05T10:37:29.526Z,10.20
2022-11-05T10:39:56.927Z,10.19
2022-11-05T10:42:46.476Z,10.18
2022-11-05T10:45:29.609Z,10.20
2022-11-05T10:48:35.281Z,10.22
2022-11-05T10:51:04.468Z,10.25
2022-11-05T10:53:34.198Z,10.26
2022-11-05T10:56:01.325Z,10.27
2022-11-05T10:58:30.673Z,10.26
2022-11-05T11:00:57.819Z,10.25
2022-11-05T11:03:48.242Z,10.22
2022-11-05T11:06:18.049Z,10.21
2022-11-05T11:08:47.292Z,10.24
2022-11-05T11:11:27.960Z,10.27
2022-11-05T11:13:58.196Z,10.32
2022-11-05T11:16:28.293Z,10.40
2022-11-05T11:18:58.593Z,10.45
2022-11-05T11:21:26.974Z,10.49
2022-11-05T11:23:56.945Z,10.51
2022-11-05T11:26:33.161Z,10.54
2022-11-05T11:29:07.419Z,10.56
2022-11-05T11:31:38.663Z,10.59
2022-11-05T11:34:26.298Z,10.60
2022-11-05T11:37:09.508Z,10.60
2022-11-05T11:39:38.598Z,10.63
2022-11-05T11:42:18.797Z,10.65
2022-11-05T11:44:48.436Z,10.64
2022-11-05T11:47:18.960Z,10.66
2022-11-05T11:50:00.500Z,10.67
2022-11-05T11:52:37.513Z,10.67
2022-11-05T11:55:19.456Z,10.66
2022-11-05T11:58:04.825Z,10.64
2022-11-05T12:00:39.898Z,10.65
2022-11-05T12:03:29.456Z,10.66
2022-11-05T12:06:11.590Z,10.67
2022-11-05T12:09:06.490Z,10.67
2022-11-05T12:11:45.861Z,10.66
2022-11-05T12:14:46.609Z,10.66
2022-11-05T12:17:38.803Z,10.64
2022-11-05T12:20:24.352Z,10.62
2022-11-05T12:23:20.594Z,10.61
2022-11-05T12:26:06.284Z,10.61
2022-11-05T12:28:57.880Z,10.60
2022-11-05T12:31:44.479Z,10.60
2022-11-05T12:34:23.710Z,10.61
2022-11-05T12:37:12.348Z,10.63
2022-11-05T12:39:51.613Z,10.65
2022-11-05T12:42:21.729Z,10.66
2022-11-05T12:45:25.783Z,10.66
2022-11-05T12:48:09.477Z,10.66
2022-11-05T12:50:48.445Z,10.65
2022-11-05T12:53:40.990Z,10.66
2022-11-05T12:56:18.465Z,10.67
2022-11-05T12:58:50.882Z,10.69
2022-11-05T13:01:38.462Z,10.71
2022-11-05T13:04:14.703Z,10.73
2022-11-05T13:06:46.965Z,10.72
2022-11-05T13:09:23.357Z,10.72
2022-11-05T13:11:54.693Z,10.70
2022-11-05T13:14:27.147Z,10.67
2022-11-05T13:17:00.388Z,10.64
2022-11-05T13:19:37.541Z,10.63
2022-11-05T13:22:18.952Z,10.64
2022-11-05T13:24:57.874Z,10.66
2022-11-05T13:28:16.381Z,10.67
2022-11-05T13:30:51.868Z,10.69
2022-11-05T13:33:23.792Z,10.71
2022-11-05T13:36:32.849Z,10.69
2022-11-05T13:39:19.725Z,10.69
2022-11-05T13:42:28.322Z,10.68
2022-11-05T13:45:28.004Z,10.66
2022-11-05T13:48:13.476Z,10.66
2022-11-05T13:50:49.808Z,10.65
2022-11-05T13:53:47.950Z,10.64
2022-11-05T13:56:17.807Z,10.64
2022-11-05T13:58:55.401Z,10.64
2022-11-05T14:01:34.782Z,10.63
2022-11-05T14:04:03.216Z,10.62
2022-11-05T14:06:33.621Z,10.57
2022-11-05T14:09:07.196Z,10.55
2022-11-05T14:11:48.919Z,10.53
2022-11-05T14:14:23.457Z,10.52
2022-11-05T14:17:13.084Z,10.54
2022-11-05T14:19:51.405Z,10.55
2022-11-05T14:22:33.735Z,10.57
2022-11-05T14:25:22.341Z,10.58
2022-11-05T14:27:52.203Z,10.60
2022-11-05T14:30:41.569Z,10.59
2022-11-05T14:33:37.484Z,10.56
2022-11-05T14:36:37.745Z,10.51
2022-11-05T14:39:38.716Z,10.50
2022-11-05T14:42:15.081Z,10.52
2022-11-05T14:44:56.700Z,10.52
2022-11-05T14:47:27.567Z,10.54
2022-11-05T14:50:09.222Z,10.56
2022-11-05T14:52:38.654Z,10.55
2022-11-05T14:55:07.420Z,10.54
2022-11-05T14:57:43.558Z,10.51
2022-11-05T15:00:40.507Z,10.48
2022-11-05T15:03:33.964Z,10.49
2022-11-05T15:06:23.629Z,10.49
2022-11-05T15:08:50.700Z,10.49
2022-11-05T15:11:29.239Z,10.50
2022-11-05T15:13:56.257Z,10.52
2022-11-05T15:16:27.182Z,10.53
2022-11-05T15:18:56.668Z,10.52
2022-11-05T15:21:25.251Z,10.50
2022-11-05T15:23:56.839Z,10.49
2022-11-05T15:26:28.658Z,10.49
2022-11-05T15:28:56.697Z,10.50
2022-11-05T15:31:37.398Z,10.52
2022-11-05T15:34:35.982Z,10.53
2022-11-05T15:37:21.500Z,10.53
2022-11-05T15:39:50.468Z,10.52
2022-11-05T15:42:25.904Z,10.51
2022-11-05T15:44:55.633Z,10.46
2022-11-05T15:47:25.807Z,10.41
2022-11-05T15:50:02.291Z,10.36
2022-11-05T15:52:36.684Z,10.32
2022-11-05T15:55:23.880Z,10.29
2022-11-05T15:58:01.244Z,10.28
2022-11-05T16:00:31.169Z,10.27
2022-11-05T16:03:01.927Z,10.27
2022-11-05T16:05:32.782Z,10.26
2022-11-05T16:08:01.829Z,10.27
2022-11-05T16:10:31.396Z,10.27
2022-11-05T16:13:27.371Z,10.24
2022-11-05T16:15:56.485Z,10.17
2022-11-05T16:18:29.666Z,10.14
2022-11-05T16:21:23.665Z,10.15
2022-11-05T16:23:57.311Z,10.17
2022-11-05T16:26:55.889Z,10.18
2022-11-05T16:29:40.355Z,10.18
2022-11-05T16:32:17.003Z,10.17
2022-11-05T16:34:53.865Z,10.14
2022-11-05T16:37:24.535Z,10.14
2022-11-05T16:39:52.626Z,10.12
2022-11-05T16:42:22.556Z,10.10
2022-11-05T16:44:50.789Z,10.09
2022-11-05T16:47:19.068Z,10.09
2022-11-05T16:49:48.281Z,10.08
2022-11-05T16:52:16.155Z,10.08
2022-11-05T16:54:43.503Z,10.08
2022-11-05T16:57:31.316Z,10.08
2022-11-05T17:00:00.321Z,10.06
2022-11-05T17:02:28.331Z,10.05
2022-11-05T17:04:55.572Z,10.03
2022-11-05T17:07:22.871Z,10.02
2022-11-05T17:09:50.042Z,10.02
2022-11-05T17:12:17.152Z,10.04
2022-11-05T17:14:44.606Z,10.06
2022-11-05T17:17:11.812Z,10.08
2022-11-05T17:19:42.518Z,10.09
2022-11-05T17:22:09.919Z,10.08
2022-11-05T17:24:37.636Z,10.09
2022-11-05T17:27:04.718Z,10.08
2022-11-05T17:29:31.877Z,10.05
2022-11-05T17:31:59.019Z,10.03
2022-11-05T17:34:26.220Z,10.02
2022-11-05T17:36:53.403Z,10.02
2022-11-05T17:39:20.447Z,10.03
2022-11-05T17:41:48.001Z,10.03
2022-11-05T17:44:15.116Z,10.03
2022-11-05T17:46:42.271Z,10.05
2022-11-05T17:49:09.377Z,10.06
2022-11-05T17:51:36.500Z,10.07
2022-11-05T17:54:04.291Z,10.09
2022-11-05T17:56:34.964Z,10.09
2022-11-05T17:59:03.651Z,10.11
2022-11-05T18:01:34.718Z,10.12
2022-11-05T18:04:08.338Z,10.12
2022-11-05T18:06:41.123Z,10.13
2022-11-05T18:09:10.224Z,10.15
2022-11-05T18:11:39.080Z,10.15
2022-11-05T18:14:06.817Z,10.15
2022-11-05T18:16:34.458Z,10.14
2022-11-05T18:19:01.942Z,10.13
2022-11-05T18:21:29.005Z,10.12
2022-11-05T18:23:56.155Z,10.14
2022-11-05T18:26:23.367Z,10.16
2022-11-05T18:28:50.585Z,10.17
2022-11-05T18:31:22.193Z,10.19
2022-11-05T18:33:50.719Z,10.21
2022-11-05T18:36:22.551Z,10.21
2022-11-05T18:38:49.931Z,10.21
2022-11-05T18:41:18.887Z,10.20
2022-11-05T18:43:46.232Z,10.18
2022-11-05T18:46:35.937Z,10.16
2022-11-05T18:49:00.865Z,10.15
2022-11-05T18:51:28.471Z,10.15
2022-11-05T18:53:56.360Z,10.15
2022-11-05T18:56:24.572Z,10.16
2022-11-05T18:59:14.807Z,10.18
2022-11-05T19:01:41.194Z,10.19
2022-11-05T19:04:09.516Z,10.18
2022-11-05T19:06:37.523Z,10.17
2022-11-05T19:09:06.695Z,10.14
2022-11-05T19:11:33.929Z,10.11
2022-11-05T19:14:01.342Z,10.11
2022-11-05T19:16:30.394Z,10.12
2022-11-05T19:19:02.616Z,10.13
2022-11-05T19:21:30.558Z,10.15
2022-11-05T19:24:02.639Z,10.18
2022-11-05T19:26:30.414Z,10.20
2022-11-05T19:28:59.822Z,10.20
2022-11-05T19:31:30.439Z,10.21
2022-11-05T19:33:57.942Z,10.20
2022-11-05T19:36:25.631Z,10.18
2022-11-05T19:38:57.942Z,10.17
2022-11-05T19:41:26.044Z,10.16
2022-11-05T19:43:54.474Z,10.18
2022-11-05T19:46:23.376Z,10.19
2022-11-05T19:48:50.821Z,10.19
2022-11-05T19:51:20.713Z,10.18
2022-11-05T19:53:47.923Z,10.16
2022-11-05T19:56:18.374Z,10.14
2022-11-05T19:58:45.913Z,10.11
2022-11-05T20:01:14.700Z,10.09
2022-11-05T20:03:42.040Z,10.09
2022-11-05T20:06:15.624Z,10.08
2022-11-05T20:09:14.783Z,10.07
2022-11-05T20:11:30.190Z,10.08
2022-11-05T20:13:57.762Z,10.04
2022-11-05T20:16:36.961Z,10.00
2022-11-05T20:19:06.713Z,9.94
2022-11-05T20:21:34.571Z,9.89
2022-11-05T20:24:02.614Z,9.88
2022-11-05T20:26:30.312Z,9.89
2022-11-05T20:28:57.373Z,9.87
2022-11-05T20:31:24.435Z,9.86
2022-11-05T20:33:52.234Z,9.84
2022-11-05T20:36:22.331Z,9.83
2022-11-05T20:38:50.919Z,9.81
2022-11-05T20:41:19.319Z,9.79
2022-11-05T20:43:48.110Z,9.76
2022-11-05T20:46:19.459Z,9.74
2022-11-05T20:48:46.755Z,9.73
2022-11-05T20:51:16.833Z,9.72
2022-11-05T20:53:46.264Z,9.72
2022-11-05T20:56:18.164Z,9.71
2022-11-05T20:58:45.430Z,9.71
2022-11-05T21:01:13.679Z,9.69
2022-11-05T21:03:40.859Z,9.66
2022-11-05T21:06:08.064Z,9.66
2022-11-05T21:08:35.722Z,9.63
2022-11-05T21:11:03.697Z,9.60
2022-11-05T21:13:30.888Z,9.55
2022-11-05T21:15:59.824Z,9.50
2022-11-05T21:18:30.262Z,9.48
2022-11-05T21:20:59.891Z,9.45
2022-11-05T21:23:28.373Z,9.42
2022-11-05T21:25:55.917Z,9.40
2022-11-05T21:28:23.478Z,9.38
2022-11-05T21:30:50.649Z,9.35
2022-11-05T21:33:18.811Z,9.32
2022-11-05T21:35:48.267Z,9.29
2022-11-05T21:38:16.723Z,9.24
2022-11-05T21:40:45.036Z,9.24
2022-11-05T21:43:13.162Z,9.24
2022-11-05T21:45:41.751Z,9.24
2022-11-05T21:48:09.620Z,9.23
2022-11-05T21:50:58.598Z,9.23
2022-11-05T21:53:44.969Z,9.20
2022-11-05T21:56:39.986Z,9.15
2022-11-05T21:59:28.611Z,9.11
2022-11-05T22:02:02.036Z,9.06
2022-11-05T22:04:31.501Z,9.01
2022-11-05T22:06:59.330Z,8.98
2022-11-05T22:09:26.750Z,8.97
2022-11-05T22:11:54.215Z,8.95
2022-11-05T22:14:21.982Z,8.95
2022-11-05T22:16:49.093Z,8.93
2022-11-05T22:19:16.784Z,8.90
2022-11-05T22:21:43.951Z,8.86
2022-11-05T22:24:11.121Z,8.82
2022-11-05T22:26:39.724Z,8.78
2022-11-05T22:29:07.615Z,8.74
2022-11-05T22:31:36.688Z,8.68
2022-11-05T22:34:05.052Z,8.67
2022-11-05T22:36:33.226Z,8.66
2022-11-05T22:39:00.472Z,8.65
2022-11-05T22:41:27.780Z,8.65
2022-11-05T22:43:54.877Z,8.62
2022-11-05T22:46:24.296Z,8.58
2022-11-05T22:48:52.556Z,8.54
2022-11-05T22:51:25.649Z,8.52
2022-11-05T22:53:53.491Z,8.49
2022-11-05T22:56:23.566Z,8.45
2022-11-05T22:58:50.769Z,8.41
2022-11-05T23:01:19.326Z,8.38
2022-11-05T23:03:47.924Z,8.35
2022-11-05T23:06:42.461Z,8.31
2022-11-05T23:09:35.493Z,8.30
2022-11-05T23:12:05.667Z,8.26
2022-11-05T23:14:33.037Z,8.21
2022-11-05T23:17:18.948Z,8.19
2022-11-05T23:20:04.808Z,8.14
2022-11-05T23:22:51.322Z,8.09
2022-11-05T23:25:21.573Z,8.03
2022-11-05T23:27:52.377Z,7.99
2022-11-05T23:30:25.277Z,7.95
2022-11-05T23:32:55.949Z,7.93
2022-11-05T23:35:43.403Z,7.89
2022-11-05T23:38:29.435Z,7.87
2022-11-05T23:41:19.985Z,7.83
2022-11-05T23:44:05.869Z,7.80
2022-11-05T23:46:51.890Z,7.76
2022-11-05T23:49:19.203Z,7.70
2022-11-05T23:51:46.412Z,7.65
2022-11-05T23:54:13.719Z,7.59
2022-11-05T23:56:41.191Z,7.52
2022-11-05T23:59:08.719Z,7.50
